Data for 12/02/2015

Time Sea-Level Adjusted Pressure Absolute Pressure Temperature Relative Humidity Dew Point   
(mb) (inHg) (mb) (inHg) (C) (F) (%) (C) (F)
00:05 1022 30.18 852 25.16 -7 19.5 59 -13.7 7.3
00:10 1022 30.18 852 25.16 -6.8 19.7 60 -13.5 7.8
00:15 1022 30.18 852 25.16 -7 19.4 59 -13.7 7.3
00:20 1022 30.18 852 25.16 -6.7 20 57 -13.8 7.1
00:25 1022 30.18 852 25.16 -6.6 20.1 58 -13.7 7.4
00:30 1022 30.18 852 25.16 -6.3 20.6 56 -13.7 7.3
00:35 1022 30.18 852 25.16 -6.1 21 59 -12.9 8.8
00:40 1022 30.18 852 25.16 -5.6 21.9 55 -13.3 8
00:45 1022 30.18 852 25.16 -6.1 21 59 -13 8.7
00:50 1022 30.18 852 25.16 -7.3 18.9 63 -13.1 8.4
00:55 1022 30.18 852 25.16 -8.3 17 68 -13.2 8.3
01:00 1022 30.18 852 25.16 -8.4 17 68 -13.3 8.1
01:05 1022 30.18 852 25.16 -8.1 17.4 64 -13.7 7.4
01:10 1022 30.18 851 25.13 -7.9 17.7 64 -13.6 7.5
01:15 1022 30.18 852 25.16 -8 17.6 64 -13.6 7.5
01:20 1022 30.18 852 25.16 -8 17.6 62 -14 6.8
01:25 1022 30.18 851 25.13 -7.5 18.4 61 -13.8 7.1
01:30 1022 30.18 851 25.13 -7.4 18.7 61 -13.7 7.4
01:35 1022 30.18 851 25.13 -7.1 19.2 59 -13.9 7
01:40 1022 30.18 851 25.13 -7.4 18.6 60 -13.9 6.9
01:45 1022 30.18 851 25.13 -7.8 18 60 -14.2 6.5
01:50 1022 30.18 851 25.13 -7.3 18.8 60 -13.8 7.2
01:55 1022 30.18 851 25.13 -7.3 19 60 -13.8 7.1
02:00 1022 30.18 851 25.13 -7.2 19.1 60 -13.8 7.2
02:05 1022 30.18 851 25.13 -7 19.3 59 -13.8 7.2
02:10 1022 30.18 851 25.13 -7 19.4 59 -13.8 7.2
02:15 1022 30.18 851 25.13 -7.4 18.6 60 -13.8 7.1
02:20 1022 30.18 851 25.13 -7.2 19 59 -14 6.8
02:25 1022 30.18 851 25.13 -6.9 19.6 56 -14.2 6.4
02:30 1022 30.18 851 25.13 -6.6 20.1 56 -14 6.8
02:35 1022 30.18 851 25.13 -6.6 20.1 57 -13.9 7.1
02:40 1022 30.18 851 25.13 -6.7 19.9 57 -13.8 7.1
02:45 1022 30.18 851 25.13 -6.4 20.4 56 -13.8 7.1
02:50 1022 30.18 851 25.13 -6.3 20.7 56 -13.7 7.4
02:55 1022 30.18 851 25.13 -6.3 20.6 56 -13.6 7.5
03:00 1022 30.18 851 25.13 -6.4 20.5 57 -13.6 7.4
03:05 1022 30.18 851 25.13 -7.2 19.1 60 -13.6 7.6
03:10 1022 30.18 851 25.13 -7.8 18.1 63 -13.7 7.4
03:15 1022 30.18 851 25.13 -7.4 18.7 61 -13.8 7.2
03:20 1022 30.18 851 25.13 -7.1 19.3 61 -13.4 7.9
03:25 1022 30.18 851 25.13 -7.2 19.1 61 -13.6 7.6
03:30 1022 30.18 851 25.13 -7.1 19.2 61 -13.4 7.8
03:35 1022 30.18 851 25.13 -7.2 19 59 -13.9 6.9
03:40 1022 30.18 851 25.13 -7 19.4 61 -13.4 7.9
03:45 1022 30.18 851 25.13 -7.4 18.8 62 -13.4 7.9
03:50 1022 30.18 851 25.13 -7 19.3 60 -13.5 7.6
03:55 1022 30.18 851 25.13 -7.4 18.7 62 -13.4 7.9
04:00 1022 30.18 851 25.13 -7.1 19.2 60 -13.6 7.5
04:05 1022 30.18 851 25.13 -6.8 19.8 58 -13.7 7.4
04:10 1022 30.18 851 25.13 -6.9 19.5 59 -13.7 7.4
04:15 1022 30.18 851 25.13 -7.3 18.9 60 -13.8 7.1
04:20 1022 30.18 851 25.13 -7.8 17.9 62 -13.9 6.9
04:25 1022 30.18 851 25.13 -7.8 17.9 63 -13.7 7.3
04:30 1022 30.18 851 25.13 -7.8 18 62 -13.9 7
04:35 1022 30.18 851 25.13 -7.7 18.1 62 -13.9 7
04:40 1022 30.18 851 25.13 -7.8 18 62 -13.8 7.2
04:45 1022 30.18 851 25.13 -7.6 18.3 62 -13.8 7.2
04:50 1022 30.18 851 25.13 -7.4 18.7 61 -13.7 7.3
04:55 1022 30.18 851 25.13 -7.3 18.9 60 -13.7 7.3
05:00 1022 30.18 851 25.13 -7.1 19.3 59 -13.7 7.3
05:05 1022 30.18 851 25.13 -7 19.3 60 -13.6 7.4
05:10 1022 30.18 851 25.13 -7.3 18.8 60 -13.7 7.3
05:15 1022 30.18 851 25.13 -7.4 18.7 60 -13.9 6.9
05:20 1022 30.18 851 25.13 -7.3 18.8 60 -13.8 7.1
05:25 1022 30.18 851 25.13 -7.3 18.9 60 -13.8 7.2
05:30 1022 30.18 851 25.13 -7.4 18.6 61 -13.7 7.3
05:35 1022 30.18 851 25.13 -7.7 18.2 62 -13.8 7.2
05:40 1022 30.18 851 25.13 -8 17.6 63 -13.9 7
05:45 1022 30.18 851 25.13 -8 17.5 63 -14 6.8
05:50 1022 30.18 851 25.13 -8 17.6 63 -14 6.9
05:55 1022 30.18 851 25.13 -8.1 17.5 63 -13.9 6.9
06:00 1022 30.18 851 25.13 -8 17.5 63 -13.9 7
06:05 1022 30.18 851 25.13 -8.1 17.5 63 -13.9 7
06:10 1022 30.18 851 25.13 -8.2 17.3 64 -13.9 6.9
06:15 1022 30.18 851 25.13 -8.2 17.3 63 -13.9 6.9
06:20 1022 30.18 851 25.13 -8.2 17.2 64 -13.9 6.9
06:25 1022 30.18 851 25.13 -8.5 16.7 65 -14 6.8
06:30 1022 30.18 851 25.13 -8.5 16.7 65 -14 6.8
06:35 1022 30.18 851 25.13 -8.5 16.8 65 -13.9 7
06:40 1022 30.18 851 25.13 -8.6 16.6 66 -13.8 7.1
06:45 1022 30.18 851 25.13 -8.6 16.5 65 -14 6.8
06:50 1022 30.18 851 25.13 -8.6 16.5 66 -14 6.9
06:55 1022 30.18 851 25.13 -8.7 16.3 65 -14.1 6.5
07:00 1022 30.18 851 25.13 -8.7 16.4 65 -14.1 6.6
07:05 1022 30.18 851 25.13 -8.6 16.5 65 -14.2 6.5
07:10 1021 30.15 851 25.13 -8.9 16 66 -14.2 6.4
07:15 1021 30.15 851 25.13 -9.2 15.4 66 -14.4 6.1
07:20 1021 30.15 851 25.13 -9.3 15.3 67 -14.3 6.2
07:25 1021 30.15 851 25.13 -9.3 15.3 67 -14.3 6.2
07:30 1021 30.15 850 25.1 -9.2 15.5 66 -14.4 6
07:35 1021 30.15 850 25.1 -9.2 15.5 66 -14.4 6.2
07:40 1021 30.15 850 25.1 -9.1 15.6 65 -14.5 5.9
07:45 1021 30.15 850 25.1 -8.9 16 64 -14.4 6
07:50 1021 30.15 850 25.1 -8.6 16.5 64 -14.3 6.2
07:55 1021 30.15 850 25.1 -8.7 16.4 64 -14.2 6.4
08:00 1021 30.15 850 25.1 -8.2 17.3 61 -14.4 6.1
08:05 1021 30.15 850 25.1 -7.6 18.3 61 -13.9 7
08:10 1021 30.15 850 25.1 -7.7 18.2 62 -13.8 7.2
08:15 1021 30.15 850 25.1 -8.4 17 66 -13.6 7.5
08:20 1021 30.15 850 25.1 -8.3 17 64 -14 6.8
08:25 1021 30.15 850 25.1 -8.7 16.3 67 -13.8 7.1
08:30 1021 30.15 850 25.1 -8.3 17 65 -13.8 7.1
08:35 1021 30.15 850 25.1 -8 17.6 64 -13.6 7.5
08:40 1021 30.15 850 25.1 -8 17.7 64 -13.6 7.5
08:45 1021 30.15 850 25.1 -7.8 18.1 64 -13.4 7.8
08:50 1021 30.15 850 25.1 -7.7 18.1 64 -13.5 7.7
08:55 1021 30.15 850 25.1 -7.9 17.8 65 -13.4 8
09:00 1021 30.15 850 25.1 -8.4 16.9 66 -13.7 7.4
09:05 1021 30.15 850 25.1 -8.4 16.9 64 -14 6.9
09:10 1021 30.15 850 25.1 -8.1 17.4 64 -13.8 7.2
09:15 1021 30.15 850 25.1 -8.2 17.3 65 -13.6 7.4
09:20 1021 30.15 850 25.1 -7.6 18.4 63 -13.5 7.7
09:25 1021 30.15 850 25.1 -7 19.5 60 -13.4 7.8
09:30 1021 30.15 850 25.1 -6.5 20.4 58 -13.4 7.8
09:35 1021 30.15 850 25.1 -6.1 21.1 58 -13.1 8.3
09:40 1021 30.15 850 25.1 -5.8 21.5 57 -13 8.6
09:45 1021 30.15 850 25.1 -5.9 21.4 58 -12.8 8.9
09:50 1021 30.15 850 25.1 -6.5 20.2 59 -13.3 8.1
09:55 1021 30.15 850 25.1 -6.3 20.6 58 -13.3 8
10:00 1021 30.15 850 25.1 -6.1 21 57 -13.4 7.9
10:05 1021 30.15 851 25.13 -5.8 21.6 56 -13.2 8.2
10:10 1021 30.15 850 25.1 -6.3 20.6 59 -13.1 8.5
10:15 1021 30.15 851 25.13 -6.8 19.8 60 -13.3 8.1
10:20 1021 30.15 851 25.13 -6.5 20.4 58 -13.3 8
10:25 1021 30.15 851 25.13 -6.4 20.5 59 -13.2 8.2
10:30 1021 30.15 851 25.13 -6.4 20.5 59 -13.1 8.5
10:35 1022 30.18 851 25.13 -6.1 21 56 -13.4 7.8
10:40 1022 30.18 851 25.13 -6 21.1 57 -13.3 8
10:45 1022 30.18 851 25.13 -5.6 22 56 -13.1 8.4
10:50 1022 30.18 851 25.13 -5.3 22.4 55 -13 8.5
10:55 1022 30.18 851 25.13 -4.8 23.4 53 -13 8.6
11:00 1022 30.18 851 25.13 -4.7 23.6 53 -12.9 8.8
11:05 1022 30.18 851 25.13 -4.5 23.8 51 -13.2 8.2
11:10 1022 30.18 851 25.13 -4.6 23.7 53 -12.9 8.9
11:15 1022 30.18 851 25.13 -4.9 23.2 54 -12.7 9.1
11:20 1022 30.18 851 25.13 -4.5 23.9 51 -13.3 8.1
11:25 1022 30.18 851 25.13 -4.3 24.3 50 -13.1 8.4
11:30 1022 30.18 851 25.13 -4.9 23.2 53 -13 8.5
11:35 1022 30.18 851 25.13 -4.6 23.7 51 -13.3 8
11:40 1022 30.18 851 25.13 -4 24.7 51 -12.8 9
11:45 1022 30.18 851 25.13 -3.8 25.2 50 -12.9 8.8
11:50 1022 30.18 851 25.13 -3.8 25.2 50 -12.8 9
11:55 1022 30.18 851 25.13 -3.6 25.5 51 -12.3 9.8
12:00 1022 30.18 851 25.13 -3.3 26.1 50 -12.3 9.9
12:05 1022 30.18 851 25.13 -3.8 25.1 51 -12.4 9.6
12:10 1022 30.18 851 25.13 -3.9 24.9 51 -12.7 9.2
12:15 1022 30.18 851 25.13 -3.6 25.5 49 -12.7 9.1
12:20 1022 30.18 851 25.13 -3 26.6 48 -12.5 9.6
12:25 1022 30.18 851 25.13 -3 26.6 50 -12.1 10.3
12:30 1022 30.18 851 25.13 -2.8 27 48 -12.3 9.9
12:35 1022 30.18 851 25.13 -2.5 27.4 47 -12.3 9.8
12:40 1021 30.15 851 25.13 -2.5 27.5 48 -12.2 10.1
12:45 1021 30.15 851 25.13 -2.4 27.7 50 -11.6 11.1
12:50 1021 30.15 851 25.13 -2.6 27.3 50 -11.7 10.9
12:55 1021 30.15 851 25.13 -2.6 27.4 47 -12.4 9.8
13:00 1021 30.15 851 25.13 -2.2 28 46 -12.3 9.9
13:05 1021 30.15 850 25.1 -2 28.4 45 -12.3 9.8
13:10 1021 30.15 850 25.1 -1.9 28.5 48 -11.6 11.2
13:15 1021 30.15 850 25.1 -2.2 28.1 48 -11.8 10.8
13:20 1021 30.15 850 25.1 -1.9 28.5 46 -12 10.4
13:25 1021 30.15 850 25.1 -2 28.4 47 -11.8 10.8
13:30 1021 30.15 850 25.1 -1.6 29.2 46 -11.8 10.7
13:35 1021 30.15 850 25.1 -1.4 29.4 47 -11.5 11.3
13:40 1021 30.15 850 25.1 -1.6 29.1 44 -12.4 9.6
13:45 1021 30.15 850 25.1 -1.1 30 43 -12.1 10.2
13:50 1021 30.15 850 25.1 -0.8 30.5 43 -11.9 10.5
13:55 1021 30.15 850 25.1 -0.9 30.3 44 -11.7 11
14:00 1021 30.15 850 25.1 -1.2 29.9 45 -11.7 11
14:05 1021 30.15 850 25.1 -1.6 29.2 47 -11.6 11.2
14:10 1021 30.15 850 25.1 -1.8 28.8 47 -11.6 11.1
14:15 1021 30.15 850 25.1 -2 28.4 50 -11 12.2
14:20 1021 30.15 850 25.1 -2.6 27.4 49 -12 10.4
14:25 1021 30.15 850 25.1 -2.5 27.4 49 -11.9 10.6
14:30 1021 30.15 850 25.1 -2.3 27.9 47 -12 10.4
14:35 1021 30.15 850 25.1 -2.4 27.7 49 -11.6 11.2
14:40 1021 30.15 850 25.1 -2.4 27.7 50 -11.5 11.3
14:45 1021 30.15 850 25.1 -2.9 26.8 51 -11.7 10.9
14:50 1021 30.15 851 25.13 -3.1 26.5 51 -11.9 10.5
14:55 1021 30.15 851 25.13 -2.9 26.8 51 -11.6 11.1
15:00 1021 30.15 850 25.1 -2.7 27.2 50 -11.6 11.1
15:05 1021 30.15 850 25.1 -2.8 27 50 -11.8 10.7
15:10 1021 30.15 850 25.1 -2.7 27.1 49 -11.9 10.6
15:15 1021 30.15 851 25.13 -2.6 27.4 51 -11.5 11.3
15:20 1022 30.18 851 25.13 -2.3 27.8 54 -10.5 13.1
15:25 1022 30.18 851 25.13 -2.2 28.1 52 -10.7 12.8
15:30 1022 30.18 851 25.13 -2.2 28 55 -10.2 13.7
15:35 1022 30.18 851 25.13 -2.4 27.7 55 -10.3 13.5
15:40 1022 30.18 851 25.13 -2.5 27.5 55 -10.3 13.4
15:45 1022 30.18 851 25.13 -2.7 27.2 57 -10.1 13.7
15:50 1022 30.18 851 25.13 -2.4 27.6 56 -10.2 13.7
15:55 1022 30.18 851 25.13 -2.3 27.8 56 -9.9 14.1
16:00 1022 30.18 851 25.13 -2.4 27.6 54 -10.4 13.2
16:05 1022 30.18 852 25.16 -2.7 27.1 55 -10.5 13
16:10 1022 30.18 852 25.16 -2.9 26.8 56 -10.5 13.1
16:15 1022 30.18 851 25.13 -3.1 26.5 57 -10.5 13
16:20 1022 30.18 851 25.13 -3.1 26.5 57 -10.3 13.4
16:25 1022 30.18 851 25.13 -3.2 26.3 59 -10 13.9
16:30 1022 30.18 851 25.13 -3.2 26.3 60 -9.9 14.1
16:35 1022 30.18 851 25.13 -3 26.7 61 -9.5 15
16:40 1022 30.18 852 25.16 -2.8 27 61 -9.4 15.1
16:45 1022 30.18 852 25.16 -2.6 27.3 59 -9.5 14.9
16:50 1022 30.18 852 25.16 -2.6 27.4 60 -9.2 15.4
16:55 1022 30.18 851 25.13 -2.6 27.3 61 -9.2 15.5
17:00 1022 30.18 851 25.13 -2.6 27.4 60 -9.3 15.3
17:05 1022 30.18 851 25.13 -2.5 27.5 60 -9.3 15.3
17:10 1022 30.18 852 25.16 -2.5 27.5 60 -9.2 15.5
17:15 1022 30.18 852 25.16 -2.4 27.7 61 -8.9 15.9
17:20 1023 30.21 852 25.16 -2.3 27.9 57 -9.7 14.6
17:25 1023 30.21 852 25.16 -2.3 27.9 59 -9.2 15.4
17:30 1023 30.21 852 25.16 -2.3 27.8 58 -9.6 14.7
17:35 1022 30.18 852 25.16 -2.4 27.7 59 -9.4 15.1
17:40 1022 30.18 852 25.16 -2.6 27.3 60 -9.3 15.3
17:45 1022 30.18 852 25.16 -2.8 26.9 64 -8.7 16.3
17:50 1022 30.18 852 25.16 -2.7 27.1 62 -8.9 15.9
17:55 1022 30.18 852 25.16 -2.8 27 63 -9 15.9
18:00 1023 30.21 852 25.16 -2.7 27.1 62 -9 15.8
18:05 1022 30.18 852 25.16 -2.8 27 62 -9.1 15.5
18:10 1022 30.18 852 25.16 -2.8 27 63 -8.9 16
18:15 1022 30.18 851 25.13 -2.7 27.1 63 -8.9 16
18:20 1022 30.18 851 25.13 -2.8 27 64 -8.7 16.3
18:25 1022 30.18 851 25.13 -3 26.6 64 -8.9 16
18:30 1022 30.18 851 25.13 -3.2 26.2 64 -9 15.7
18:35 1022 30.18 851 25.13 -3.3 26.1 64 -9.1 15.7
18:40 1022 30.18 851 25.13 -3.2 26.2 63 -9.3 15.3
18:45 1022 30.18 851 25.13 -3.1 26.5 62 -9.3 15.2
18:50 1022 30.18 851 25.13 -3 26.7 59 -9.8 14.4
18:55 1022 30.18 852 25.16 -2.7 27.1 59 -9.8 14.4
19:00 1022 30.18 852 25.16 -2.5 27.5 60 -9.2 15.4
19:05 1023 30.21 852 25.16 -2.4 27.6 61 -8.9 16
19:10 1023 30.21 852 25.16 -2.3 27.8 61 -8.8 16.2
19:15 1023 30.21 852 25.16 -2.3 27.9 62 -8.6 16.5
19:20 1023 30.21 852 25.16 -2.3 27.8 61 -9 15.9
19:25 1023 30.21 852 25.16 -2.3 27.9 60 -9 15.8
19:30 1023 30.21 852 25.16 -2.4 27.7 61 -8.8 16.1
19:35 1023 30.21 852 25.16 -2.4 27.7 61 -9 15.8
19:40 1023 30.21 852 25.16 -2.4 27.7 61 -8.8 16.1
19:45 1023 30.21 852 25.16 -2.2 28 61 -8.8 16.2
19:50 1023 30.21 852 25.16 -1.9 28.6 59 -9 15.9
19:55 1023 30.21 852 25.16 -1.7 29 59 -8.6 16.5
20:00 1023 30.21 852 25.16 -1.6 29.1 60 -8.4 16.8
20:05 1023 30.21 852 25.16 -1.5 29.2 60 -8.3 17.1
20:10 1023 30.21 852 25.16 -1.8 28.8 65 -7.5 18.5
20:15 1023 30.21 852 25.16 -2 28.4 65 -7.7 18.1
20:20 1023 30.21 852 25.16 -1.9 28.6 66 -7.3 18.8
20:25 1023 30.21 852 25.16 -1.8 28.8 66 -7.2 19
20:30 1023 30.21 852 25.16 -1.6 29.2 66 -7.2 19.1
20:35 1023 30.21 852 25.16 -1.4 29.5 66 -6.9 19.6
20:40 1023 30.21 852 25.16 -1.4 29.5 67 -6.7 20
20:45 1023 30.21 852 25.16 -1.4 29.4 67 -6.9 19.6
20:50 1023 30.21 852 25.16 -1.3 29.6 64 -7.2 19
20:55 1023 30.21 852 25.16 -1 30.2 65 -6.7 19.9
21:00 1023 30.21 852 25.16 -1 30.2 65 -6.7 19.9
21:05 1023 30.21 852 25.16 -0.8 30.5 64 -6.9 19.7
21:10 1023 30.21 852 25.16 -1.2 29.9 67 -6.6 20.1
21:15 1023 30.21 852 25.16 -1.7 28.9 67 -7 19.4
21:20 1023 30.21 852 25.16 -2.2 28.1 69 -7.2 19.1
21:25 1023 30.21 852 25.16 -2.3 27.9 69 -7.2 19
21:30 1023 30.21 852 25.16 -2.2 28 69 -7.1 19.2
21:35 1023 30.21 852 25.16 -2.4 27.6 68 -7.5 18.5
21:40 1023 30.21 852 25.16 -2.5 27.6 70 -7.1 19.2
21:45 1023 30.21 852 25.16 -2.3 27.9 69 -7.2 19
21:50 1023 30.21 852 25.16 -2 28.3 68 -7.2 19
21:55 1023 30.21 852 25.16 -1.9 28.6 67 -7.3 18.9
22:00 1023 30.21 852 25.16 -1.2 29.9 64 -7.1 19.2
22:05 1023 30.21 852 25.16 -0.9 30.4 64 -6.9 19.5
22:10 1023 30.21 852 25.16 -0.6 30.9 61 -7.2 19
22:15 1023 30.21 853 25.19 -0.5 31.2 61 -7.1 19.2
22:20 1023 30.21 852 25.16 -0.5 31.1 60 -7.3 18.9
22:25 1023 30.21 852 25.16 -0.4 31.4 60 -7.1 19.2
22:30 1023 30.21 853 25.19 -0.3 31.4 62 -6.8 19.8
22:35 1024 30.24 853 25.19 -0.4 31.3 63 -6.5 20.2
22:40 1024 30.24 853 25.19 -0.6 31 63 -6.7 19.9
22:45 1024 30.24 853 25.19 -0.6 31 65 -6.4 20.6
22:50 1024 30.24 853 25.19 -1.1 30.1 66 -6.6 20.1
22:55 1023 30.21 852 25.16 -1 30.2 64 -7 19.4
23:00 1023 30.21 852 25.16 -0.7 30.7 64 -6.7 19.9
23:05 1023 30.21 852 25.16 -0.7 30.8 64 -6.6 20.2
23:10 1023 30.21 852 25.16 -0.9 30.4 67 -6.2 20.9
23:15 1023 30.21 853 25.19 -1.3 29.7 69 -6.2 20.8
23:20 1023 30.21 853 25.19 -1.6 29.1 70 -6.3 20.6
23:25 1023 30.21 853 25.19 -1.8 28.7 71 -6.3 20.6
23:30 1024 30.24 853 25.19 -1.9 28.6 72 -6.3 20.6
23:35 1024 30.24 853 25.19 -2 28.4 72 -6.3 20.6
23:40 1024 30.24 853 25.19 -2 28.4 73 -6.2 20.8
23:45 1024 30.24 853 25.19 -2 28.3 72 -6.4 20.5
23:50 1024 30.24 853 25.19 -2 28.5 72 -6.4 20.5
23:55 1024 30.24 853 25.19 -2.1 28.3 72 -6.4 20.5
24:00 1024 30.24 853 25.19 -2.2 28 71 -6.7 19.9